sensor_id;sensor_type;location;lat;lon;timestamp;P1;durP1;ratioP1;P2;durP2;ratioP2
21507;SDS011;10915;54.352;9.074;2022-07-29T00:02:06;6.80;;;3.30;;
21507;SDS011;10915;54.352;9.074;2022-07-29T00:04:34;4.93;;;3.20;;
21507;SDS011;10915;54.352;9.074;2022-07-29T00:07:00;7.97;;;3.63;;
21507;SDS011;10915;54.352;9.074;2022-07-29T00:09:25;6.30;;;3.40;;
21507;SDS011;10915;54.352;9.074;2022-07-29T00:11:51;4.70;;;3.30;;
21507;SDS011;10915;54.352;9.074;2022-07-29T00:14:17;4.90;;;3.20;;
21507;SDS011;10915;54.352;9.074;2022-07-29T00:16:42;5.83;;;3.40;;
21507;SDS011;10915;54.352;9.074;2022-07-29T00:19:08;4.10;;;3.10;;
21507;SDS011;10915;54.352;9.074;2022-07-29T00:21:33;3.43;;;3.03;;
21507;SDS011;10915;54.352;9.074;2022-07-29T00:23:59;5.37;;;2.50;;
21507;SDS011;10915;54.352;9.074;2022-07-29T00:26:25;3.17;;;2.40;;
21507;SDS011;10915;54.352;9.074;2022-07-29T00:28:52;6.27;;;3.30;;
21507;SDS011;10915;54.352;9.074;2022-07-29T00:31:18;6.90;;;3.73;;
21507;SDS011;10915;54.352;9.074;2022-07-29T00:33:43;5.90;;;3.40;;
21507;SDS011;10915;54.352;9.074;2022-07-29T00:36:09;6.77;;;4.07;;
21507;SDS011;10915;54.352;9.074;2022-07-29T00:38:35;6.43;;;3.47;;
21507;SDS011;10915;54.352;9.074;2022-07-29T00:41:00;8.77;;;3.63;;
21507;SDS011;10915;54.352;9.074;2022-07-29T00:43:26;6.57;;;3.27;;
21507;SDS011;10915;54.352;9.074;2022-07-29T00:45:52;7.83;;;3.30;;
21507;SDS011;10915;54.352;9.074;2022-07-29T00:48:17;6.83;;;3.50;;
21507;SDS011;10915;54.352;9.074;2022-07-29T00:50:43;4.97;;;3.67;;
21507;SDS011;10915;54.352;9.074;2022-07-29T00:53:08;7.67;;;3.43;;
21507;SDS011;10915;54.352;9.074;2022-07-29T00:55:36;4.67;;;3.00;;
21507;SDS011;10915;54.352;9.074;2022-07-29T00:58:02;6.67;;;3.30;;
21507;SDS011;10915;54.352;9.074;2022-07-29T01:00:30;9.27;;;3.83;;
21507;SDS011;10915;54.352;9.074;2022-07-29T01:02:56;7.80;;;3.47;;
21507;SDS011;10915;54.352;9.074;2022-07-29T01:05:22;6.97;;;3.70;;
21507;SDS011;10915;54.352;9.074;2022-07-29T01:07:51;6.17;;;3.50;;
21507;SDS011;10915;54.352;9.074;2022-07-29T01:10:18;6.17;;;3.53;;
21507;SDS011;10915;54.352;9.074;2022-07-29T01:12:46;6.50;;;3.70;;
21507;SDS011;10915;54.352;9.074;2022-07-29T01:15:13;5.87;;;3.90;;
21507;SDS011;10915;54.352;9.074;2022-07-29T01:17:43;7.10;;;4.10;;
21507;SDS011;10915;54.352;9.074;2022-07-29T01:25:45;8.77;;;4.10;;
21507;SDS011;10915;54.352;9.074;2022-07-29T01:28:39;9.07;;;4.17;;
21507;SDS011;10915;54.352;9.074;2022-07-29T01:37:29;7.40;;;4.30;;
21507;SDS011;10915;54.352;9.074;2022-07-29T01:39:55;6.80;;;4.50;;
21507;SDS011;10915;54.352;9.074;2022-07-29T01:42:35;7.87;;;4.90;;
21507;SDS011;10915;54.352;9.074;2022-07-29T01:45:09;8.30;;;5.17;;
21507;SDS011;10915;54.352;9.074;2022-07-29T01:47:43;8.47;;;4.93;;
21507;SDS011;10915;54.352;9.074;2022-07-29T01:50:19;9.20;;;5.50;;
21507;SDS011;10915;54.352;9.074;2022-07-29T01:55:25;9.47;;;5.23;;
21507;SDS011;10915;54.352;9.074;2022-07-29T01:57:58;7.83;;;5.57;;
21507;SDS011;10915;54.352;9.074;2022-07-29T02:00:25;10.37;;;5.80;;
21507;SDS011;10915;54.352;9.074;2022-07-29T02:02:52;7.00;;;5.07;;
21507;SDS011;10915;54.352;9.074;2022-07-29T02:05:20;7.63;;;5.10;;
21507;SDS011;10915;54.352;9.074;2022-07-29T02:07:48;7.00;;;4.80;;
21507;SDS011;10915;54.352;9.074;2022-07-29T02:10:16;12.10;;;5.50;;
21507;SDS011;10915;54.352;9.074;2022-07-29T02:12:45;7.00;;;4.90;;
21507;SDS011;10915;54.352;9.074;2022-07-29T02:15:13;10.30;;;4.87;;
21507;SDS011;10915;54.352;9.074;2022-07-29T02:17:42;8.77;;;5.13;;
21507;SDS011;10915;54.352;9.074;2022-07-29T02:20:11;8.80;;;4.93;;
21507;SDS011;10915;54.352;9.074;2022-07-29T02:22:39;6.97;;;5.17;;
21507;SDS011;10915;54.352;9.074;2022-07-29T02:25:08;7.50;;;5.03;;
21507;SDS011;10915;54.352;9.074;2022-07-29T02:30:12;6.60;;;4.90;;
21507;SDS011;10915;54.352;9.074;2022-07-29T02:32:39;8.80;;;5.13;;
21507;SDS011;10915;54.352;9.074;2022-07-29T02:35:06;8.90;;;5.07;;
21507;SDS011;10915;54.352;9.074;2022-07-29T02:37:34;9.13;;;5.47;;
21507;SDS011;10915;54.352;9.074;2022-07-29T02:40:01;8.53;;;5.23;;
21507;SDS011;10915;54.352;9.074;2022-07-29T02:42:28;8.87;;;5.37;;
21507;SDS011;10915;54.352;9.074;2022-07-29T02:44:55;6.70;;;4.70;;
21507;SDS011;10915;54.352;9.074;2022-07-29T02:47:23;10.33;;;5.57;;
21507;SDS011;10915;54.352;9.074;2022-07-29T02:52:47;8.80;;;5.50;;
21507;SDS011;10915;54.352;9.074;2022-07-29T02:55:23;9.63;;;5.90;;
21507;SDS011;10915;54.352;9.074;2022-07-29T02:58:21;9.03;;;5.43;;
21507;SDS011;10915;54.352;9.074;2022-07-29T03:00:56;9.33;;;5.40;;
21507;SDS011;10915;54.352;9.074;2022-07-29T03:03:43;9.07;;;5.33;;
21507;SDS011;10915;54.352;9.074;2022-07-29T03:06:12;7.10;;;5.70;;
21507;SDS011;10915;54.352;9.074;2022-07-29T03:08:39;9.07;;;5.40;;
21507;SDS011;10915;54.352;9.074;2022-07-29T03:11:07;11.33;;;6.03;;
21507;SDS011;10915;54.352;9.074;2022-07-29T03:13:34;9.50;;;6.07;;
21507;SDS011;10915;54.352;9.074;2022-07-29T03:16:00;8.73;;;5.73;;
21507;SDS011;10915;54.352;9.074;2022-07-29T03:18:27;11.73;;;6.10;;
21507;SDS011;10915;54.352;9.074;2022-07-29T03:20:54;9.23;;;5.80;;
21507;SDS011;10915;54.352;9.074;2022-07-29T03:23:20;12.03;;;6.30;;
21507;SDS011;10915;54.352;9.074;2022-07-29T03:25:51;14.97;;;6.10;;
21507;SDS011;10915;54.352;9.074;2022-07-29T03:28:17;9.87;;;6.47;;
21507;SDS011;10915;54.352;9.074;2022-07-29T03:30:43;8.80;;;6.43;;
21507;SDS011;10915;54.352;9.074;2022-07-29T03:33:08;11.83;;;7.07;;
21507;SDS011;10915;54.352;9.074;2022-07-29T03:35:34;11.67;;;6.93;;
21507;SDS011;10915;54.352;9.074;2022-07-29T03:38:00;12.43;;;6.73;;
21507;SDS011;10915;54.352;9.074;2022-07-29T03:40:27;13.10;;;6.90;;
21507;SDS011;10915;54.352;9.074;2022-07-29T03:42:59;10.57;;;6.60;;
21507;SDS011;10915;54.352;9.074;2022-07-29T03:45:26;10.60;;;7.03;;
21507;SDS011;10915;54.352;9.074;2022-07-29T03:47:56;10.07;;;7.07;;
21507;SDS011;10915;54.352;9.074;2022-07-29T03:50:25;11.00;;;6.80;;
21507;SDS011;10915;54.352;9.074;2022-07-29T03:52:52;11.23;;;7.43;;
21507;SDS011;10915;54.352;9.074;2022-07-29T03:55:17;10.83;;;7.57;;
21507;SDS011;10915;54.352;9.074;2022-07-29T03:57:44;10.53;;;7.57;;
21507;SDS011;10915;54.352;9.074;2022-07-29T04:00:11;11.90;;;7.67;;
21507;SDS011;10915;54.352;9.074;2022-07-29T04:02:37;13.93;;;7.17;;
21507;SDS011;10915;54.352;9.074;2022-07-29T04:05:04;11.87;;;8.27;;
21507;SDS011;10915;54.352;9.074;2022-07-29T04:07:30;10.27;;;7.37;;
21507;SDS011;10915;54.352;9.074;2022-07-29T04:09:55;13.97;;;7.43;;
21507;SDS011;10915;54.352;9.074;2022-07-29T04:12:21;10.17;;;7.70;;
21507;SDS011;10915;54.352;9.074;2022-07-29T04:14:47;10.17;;;7.80;;
21507;SDS011;10915;54.352;9.074;2022-07-29T04:17:13;9.30;;;7.03;;
21507;SDS011;10915;54.352;9.074;2022-07-29T04:19:39;16.20;;;8.00;;
21507;SDS011;10915;54.352;9.074;2022-07-29T04:22:04;9.77;;;6.90;;
21507;SDS011;10915;54.352;9.074;2022-07-29T04:24:30;11.20;;;7.63;;
21507;SDS011;10915;54.352;9.074;2022-07-29T04:26:56;9.93;;;8.00;;
21507;SDS011;10915;54.352;9.074;2022-07-29T04:29:21;13.73;;;7.80;;
21507;SDS011;10915;54.352;9.074;2022-07-29T04:31:47;12.17;;;7.90;;
21507;SDS011;10915;54.352;9.074;2022-07-29T04:34:12;13.60;;;7.43;;
21507;SDS011;10915;54.352;9.074;2022-07-29T04:36:38;9.93;;;7.47;;
21507;SDS011;10915;54.352;9.074;2022-07-29T04:39:04;11.63;;;7.77;;
21507;SDS011;10915;54.352;9.074;2022-07-29T04:41:30;12.37;;;8.43;;
21507;SDS011;10915;54.352;9.074;2022-07-29T04:43:55;11.50;;;7.73;;
21507;SDS011;10915;54.352;9.074;2022-07-29T04:46:21;11.93;;;7.67;;
21507;SDS011;10915;54.352;9.074;2022-07-29T04:48:47;14.37;;;8.27;;
21507;SDS011;10915;54.352;9.074;2022-07-29T04:51:13;16.10;;;8.10;;
21507;SDS011;10915;54.352;9.074;2022-07-29T04:53:39;13.60;;;8.80;;
21507;SDS011;10915;54.352;9.074;2022-07-29T04:56:05;17.07;;;8.93;;
21507;SDS011;10915;54.352;9.074;2022-07-29T04:58:31;11.10;;;8.33;;
21507;SDS011;10915;54.352;9.074;2022-07-29T05:01:00;13.23;;;8.47;;
21507;SDS011;10915;54.352;9.074;2022-07-29T05:03:25;14.63;;;8.97;;
21507;SDS011;10915;54.352;9.074;2022-07-29T05:05:51;16.60;;;8.53;;
21507;SDS011;10915;54.352;9.074;2022-07-29T05:08:16;12.43;;;8.27;;
21507;SDS011;10915;54.352;9.074;2022-07-29T05:10:42;15.60;;;8.50;;
21507;SDS011;10915;54.352;9.074;2022-07-29T05:13:08;10.13;;;8.27;;
21507;SDS011;10915;54.352;9.074;2022-07-29T05:15:34;13.90;;;8.57;;
21507;SDS011;10915;54.352;9.074;2022-07-29T05:18:00;12.73;;;8.37;;
21507;SDS011;10915;54.352;9.074;2022-07-29T05:20:27;11.60;;;8.80;;
21507;SDS011;10915;54.352;9.074;2022-07-29T05:22:57;14.30;;;8.57;;
21507;SDS011;10915;54.352;9.074;2022-07-29T05:25:24;11.80;;;8.47;;
21507;SDS011;10915;54.352;9.074;2022-07-29T05:27:50;14.93;;;8.37;;
21507;SDS011;10915;54.352;9.074;2022-07-29T05:30:17;13.90;;;8.40;;
21507;SDS011;10915;54.352;9.074;2022-07-29T05:32:43;11.80;;;8.13;;
21507;SDS011;10915;54.352;9.074;2022-07-29T05:35:09;13.40;;;7.87;;
21507;SDS011;10915;54.352;9.074;2022-07-29T05:37:35;13.10;;;8.53;;
21507;SDS011;10915;54.352;9.074;2022-07-29T05:40:01;11.97;;;8.47;;
21507;SDS011;10915;54.352;9.074;2022-07-29T05:42:28;15.00;;;7.50;;
21507;SDS011;10915;54.352;9.074;2022-07-29T05:44:54;8.23;;;6.30;;
21507;SDS011;10915;54.352;9.074;2022-07-29T05:47:20;12.17;;;7.00;;
21507;SDS011;10915;54.352;9.074;2022-07-29T05:49:46;14.60;;;6.80;;
21507;SDS011;10915;54.352;9.074;2022-07-29T05:52:12;11.30;;;6.77;;
21507;SDS011;10915;54.352;9.074;2022-07-29T05:54:38;11.53;;;6.90;;
21507;SDS011;10915;54.352;9.074;2022-07-29T05:57:04;12.33;;;6.63;;
21507;SDS011;10915;54.352;9.074;2022-07-29T05:59:31;10.90;;;6.13;;
21507;SDS011;10915;54.352;9.074;2022-07-29T06:02:00;8.40;;;5.77;;
21507;SDS011;10915;54.352;9.074;2022-07-29T06:04:26;7.47;;;5.43;;
21507;SDS011;10915;54.352;9.074;2022-07-29T06:06:51;10.33;;;5.77;;
21507;SDS011;10915;54.352;9.074;2022-07-29T06:09:17;10.07;;;5.77;;
21507;SDS011;10915;54.352;9.074;2022-07-29T06:11:43;10.63;;;5.90;;
21507;SDS011;10915;54.352;9.074;2022-07-29T06:14:09;14.90;;;6.10;;
21507;SDS011;10915;54.352;9.074;2022-07-29T06:16:34;12.87;;;5.93;;
21507;SDS011;10915;54.352;9.074;2022-07-29T06:19:00;13.23;;;5.70;;
21507;SDS011;10915;54.352;9.074;2022-07-29T06:21:26;10.50;;;5.53;;
21507;SDS011;10915;54.352;9.074;2022-07-29T06:23:51;9.70;;;4.67;;
21507;SDS011;10915;54.352;9.074;2022-07-29T06:26:17;6.53;;;4.80;;
21507;SDS011;10915;54.352;9.074;2022-07-29T06:28:42;8.80;;;4.10;;
21507;SDS011;10915;54.352;9.074;2022-07-29T06:31:08;10.43;;;5.30;;
21507;SDS011;10915;54.352;9.074;2022-07-29T06:33:34;10.63;;;4.70;;
21507;SDS011;10915;54.352;9.074;2022-07-29T06:36:00;9.93;;;4.53;;
21507;SDS011;10915;54.352;9.074;2022-07-29T06:38:25;7.00;;;3.40;;
21507;SDS011;10915;54.352;9.074;2022-07-29T06:40:51;8.33;;;4.30;;
21507;SDS011;10915;54.352;9.074;2022-07-29T06:43:34;6.07;;;4.03;;
21507;SDS011;10915;54.352;9.074;2022-07-29T06:46:06;8.30;;;3.73;;
21507;SDS011;10915;54.352;9.074;2022-07-29T06:48:33;10.33;;;4.20;;
21507;SDS011;10915;54.352;9.074;2022-07-29T06:51:00;9.53;;;3.90;;
21507;SDS011;10915;54.352;9.074;2022-07-29T06:53:26;7.53;;;2.70;;
21507;SDS011;10915;54.352;9.074;2022-07-29T06:55:52;8.77;;;3.47;;
21507;SDS011;10915;54.352;9.074;2022-07-29T06:58:18;7.63;;;3.20;;
21507;SDS011;10915;54.352;9.074;2022-07-29T07:00:45;7.00;;;3.00;;
21507;SDS011;10915;54.352;9.074;2022-07-29T07:03:12;7.03;;;3.23;;
21507;SDS011;10915;54.352;9.074;2022-07-29T07:05:38;7.80;;;3.13;;
21507;SDS011;10915;54.352;9.074;2022-07-29T07:08:04;6.00;;;3.37;;
21507;SDS011;10915;54.352;9.074;2022-07-29T07:10:30;8.63;;;3.70;;
21507;SDS011;10915;54.352;9.074;2022-07-29T07:12:56;9.93;;;3.53;;
21507;SDS011;10915;54.352;9.074;2022-07-29T07:15:21;6.13;;;3.03;;
21507;SDS011;10915;54.352;9.074;2022-07-29T07:17:47;4.73;;;2.93;;
21507;SDS011;10915;54.352;9.074;2022-07-29T07:20:14;5.67;;;2.97;;
21507;SDS011;10915;54.352;9.074;2022-07-29T07:22:40;8.60;;;3.03;;
21507;SDS011;10915;54.352;9.074;2022-07-29T07:25:06;7.47;;;3.27;;
21507;SDS011;10915;54.352;9.074;2022-07-29T07:27:32;7.33;;;3.13;;
21507;SDS011;10915;54.352;9.074;2022-07-29T07:29:58;5.70;;;3.10;;
21507;SDS011;10915;54.352;9.074;2022-07-29T07:32:23;5.80;;;3.40;;
21507;SDS011;10915;54.352;9.074;2022-07-29T07:34:49;7.43;;;3.13;;
21507;SDS011;10915;54.352;9.074;2022-07-29T07:37:14;7.93;;;3.30;;
21507;SDS011;10915;54.352;9.074;2022-07-29T07:39:41;6.90;;;2.87;;
21507;SDS011;10915;54.352;9.074;2022-07-29T07:42:06;4.97;;;2.63;;
21507;SDS011;10915;54.352;9.074;2022-07-29T07:44:32;11.33;;;3.10;;
21507;SDS011;10915;54.352;9.074;2022-07-29T07:46:58;6.07;;;2.77;;
21507;SDS011;10915;54.352;9.074;2022-07-29T07:49:23;5.87;;;2.50;;
21507;SDS011;10915;54.352;9.074;2022-07-29T07:51:49;5.73;;;2.63;;
21507;SDS011;10915;54.352;9.074;2022-07-29T07:54:14;3.87;;;1.83;;
21507;SDS011;10915;54.352;9.074;2022-07-29T07:56:40;6.67;;;1.87;;
21507;SDS011;10915;54.352;9.074;2022-07-29T07:59:06;6.83;;;2.10;;
21507;SDS011;10915;54.352;9.074;2022-07-29T08:01:31;5.50;;;1.77;;
21507;SDS011;10915;54.352;9.074;2022-07-29T08:03:57;4.57;;;1.83;;
21507;SDS011;10915;54.352;9.074;2022-07-29T08:06:23;4.37;;;1.50;;
21507;SDS011;10915;54.352;9.074;2022-07-29T08:08:50;3.57;;;1.53;;
21507;SDS011;10915;54.352;9.074;2022-07-29T08:11:15;3.93;;;1.60;;
21507;SDS011;10915;54.352;9.074;2022-07-29T08:13:41;5.07;;;1.70;;
21507;SDS011;10915;54.352;9.074;2022-07-29T08:16:08;5.30;;;1.77;;
21507;SDS011;10915;54.352;9.074;2022-07-29T08:18:37;9.60;;;2.13;;
21507;SDS011;10915;54.352;9.074;2022-07-29T08:21:05;7.60;;;2.23;;
21507;SDS011;10915;54.352;9.074;2022-07-29T08:23:30;7.27;;;2.27;;
21507;SDS011;10915;54.352;9.074;2022-07-29T08:26:03;6.47;;;1.57;;
21507;SDS011;10915;54.352;9.074;2022-07-29T08:31:00;4.23;;;1.70;;
21507;SDS011;10915;54.352;9.074;2022-07-29T08:33:26;5.30;;;1.77;;
21507;SDS011;10915;54.352;9.074;2022-07-29T08:35:51;3.47;;;1.57;;
21507;SDS011;10915;54.352;9.074;2022-07-29T08:38:17;5.23;;;1.80;;
21507;SDS011;10915;54.352;9.074;2022-07-29T08:40:43;5.50;;;1.67;;
21507;SDS011;10915;54.352;9.074;2022-07-29T08:43:09;5.80;;;1.80;;
21507;SDS011;10915;54.352;9.074;2022-07-29T08:45:45;7.93;;;1.77;;
21507;SDS011;10915;54.352;9.074;2022-07-29T08:48:12;7.17;;;2.03;;
21507;SDS011;10915;54.352;9.074;2022-07-29T08:50:39;4.83;;;2.03;;
21507;SDS011;10915;54.352;9.074;2022-07-29T08:53:10;4.73;;;1.73;;
21507;SDS011;10915;54.352;9.074;2022-07-29T08:55:44;6.70;;;2.07;;
21507;SDS011;10915;54.352;9.074;2022-07-29T08:58:12;8.17;;;2.23;;
21507;SDS011;10915;54.352;9.074;2022-07-29T09:00:43;9.20;;;2.20;;
21507;SDS011;10915;54.352;9.074;2022-07-29T09:03:12;8.83;;;1.80;;
21507;SDS011;10915;54.352;9.074;2022-07-29T09:05:46;4.83;;;2.27;;
21507;SDS011;10915;54.352;9.074;2022-07-29T09:08:14;5.43;;;1.80;;
21507;SDS011;10915;54.352;9.074;2022-07-29T09:10:40;4.23;;;2.07;;
21507;SDS011;10915;54.352;9.074;2022-07-29T09:13:06;11.73;;;2.13;;
21507;SDS011;10915;54.352;9.074;2022-07-29T09:15:32;6.07;;;2.13;;
21507;SDS011;10915;54.352;9.074;2022-07-29T09:17:58;11.77;;;2.30;;
21507;SDS011;10915;54.352;9.074;2022-07-29T09:20:25;9.50;;;2.07;;
21507;SDS011;10915;54.352;9.074;2022-07-29T09:22:51;5.77;;;2.37;;
21507;SDS011;10915;54.352;9.074;2022-07-29T09:28:09;4.00;;;1.60;;
21507;SDS011;10915;54.352;9.074;2022-07-29T09:30:36;6.93;;;2.20;;
21507;SDS011;10915;54.352;9.074;2022-07-29T09:33:16;6.00;;;1.87;;
21507;SDS011;10915;54.352;9.074;2022-07-29T09:35:43;11.13;;;2.13;;
21507;SDS011;10915;54.352;9.074;2022-07-29T09:38:12;8.50;;;1.90;;
21507;SDS011;10915;54.352;9.074;2022-07-29T09:40:38;7.50;;;2.70;;
21507;SDS011;10915;54.352;9.074;2022-07-29T09:43:11;6.00;;;2.30;;
21507;SDS011;10915;54.352;9.074;2022-07-29T09:45:38;6.40;;;1.90;;
21507;SDS011;10915;54.352;9.074;2022-07-29T09:48:17;6.73;;;2.63;;
21507;SDS011;10915;54.352;9.074;2022-07-29T09:50:44;6.43;;;2.40;;
21507;SDS011;10915;54.352;9.074;2022-07-29T09:53:12;8.73;;;2.20;;
21507;SDS011;10915;54.352;9.074;2022-07-29T09:55:54;6.00;;;2.20;;
21507;SDS011;10915;54.352;9.074;2022-07-29T09:58:20;5.97;;;2.20;;
21507;SDS011;10915;54.352;9.074;2022-07-29T10:00:48;5.10;;;2.13;;
21507;SDS011;10915;54.352;9.074;2022-07-29T10:03:15;4.03;;;1.73;;
21507;SDS011;10915;54.352;9.074;2022-07-29T10:05:41;10.93;;;2.00;;
21507;SDS011;10915;54.352;9.074;2022-07-29T10:08:08;6.23;;;2.13;;
21507;SDS011;10915;54.352;9.074;2022-07-29T10:10:36;5.77;;;2.23;;
21507;SDS011;10915;54.352;9.074;2022-07-29T10:13:05;7.40;;;2.10;;
21507;SDS011;10915;54.352;9.074;2022-07-29T10:15:34;5.37;;;2.20;;
21507;SDS011;10915;54.352;9.074;2022-07-29T10:18:06;3.07;;;1.50;;
21507;SDS011;10915;54.352;9.074;2022-07-29T10:20:32;5.30;;;2.30;;
21507;SDS011;10915;54.352;9.074;2022-07-29T10:22:58;6.83;;;2.20;;
21507;SDS011;10915;54.352;9.074;2022-07-29T10:25:25;5.50;;;1.93;;
21507;SDS011;10915;54.352;9.074;2022-07-29T10:27:51;9.30;;;2.53;;
21507;SDS011;10915;54.352;9.074;2022-07-29T10:30:18;6.00;;;2.30;;
21507;SDS011;10915;54.352;9.074;2022-07-29T10:44:01;5.73;;;2.30;;
21507;SDS011;10915;54.352;9.074;2022-07-29T10:46:37;7.03;;;2.10;;
21507;SDS011;10915;54.352;9.074;2022-07-29T10:57:20;8.30;;;2.17;;
21507;SDS011;10915;54.352;9.074;2022-07-29T11:07:36;5.40;;;1.83;;
21507;SDS011;10915;54.352;9.074;2022-07-29T11:15:06;7.77;;;2.03;;
21507;SDS011;10915;54.352;9.074;2022-07-29T11:20:44;4.47;;;1.60;;
21507;SDS011;10915;54.352;9.074;2022-07-29T11:29:22;7.77;;;2.20;;
21507;SDS011;10915;54.352;9.074;2022-07-29T11:34:25;5.83;;;1.60;;
21507;SDS011;10915;54.352;9.074;2022-07-29T11:47:38;7.83;;;1.60;;
21507;SDS011;10915;54.352;9.074;2022-07-29T11:50:10;4.00;;;1.53;;
21507;SDS011;10915;54.352;9.074;2022-07-29T11:52:38;4.00;;;1.70;;
21507;SDS011;10915;54.352;9.074;2022-07-29T11:55:09;6.53;;;1.90;;
21507;SDS011;10915;54.352;9.074;2022-07-29T11:57:37;3.43;;;1.70;;
21507;SDS011;10915;54.352;9.074;2022-07-29T12:00:24;5.93;;;1.80;;
21507;SDS011;10915;54.352;9.074;2022-07-29T12:02:56;2.87;;;1.33;;
21507;SDS011;10915;54.352;9.074;2022-07-29T12:05:30;6.57;;;1.77;;
21507;SDS011;10915;54.352;9.074;2022-07-29T12:08:04;3.67;;;1.60;;
21507;SDS011;10915;54.352;9.074;2022-07-29T12:10:51;3.97;;;1.50;;
21507;SDS011;10915;54.352;9.074;2022-07-29T12:13:20;4.57;;;1.67;;
21507;SDS011;10915;54.352;9.074;2022-07-29T12:15:53;6.37;;;1.97;;
21507;SDS011;10915;54.352;9.074;2022-07-29T12:18:21;6.23;;;1.90;;
21507;SDS011;10915;54.352;9.074;2022-07-29T12:20:47;6.23;;;1.90;;
21507;SDS011;10915;54.352;9.074;2022-07-29T12:23:14;4.97;;;2.53;;
21507;SDS011;10915;54.352;9.074;2022-07-29T12:25:41;6.70;;;2.40;;
21507;SDS011;10915;54.352;9.074;2022-07-29T12:28:09;5.20;;;1.70;;
21507;SDS011;10915;54.352;9.074;2022-07-29T12:33:10;3.83;;;1.40;;
21507;SDS011;10915;54.352;9.074;2022-07-29T12:35:36;5.67;;;1.77;;
21507;SDS011;10915;54.352;9.074;2022-07-29T12:38:01;4.27;;;1.80;;
21507;SDS011;10915;54.352;9.074;2022-07-29T12:40:28;6.60;;;1.77;;
21507;SDS011;10915;54.352;9.074;2022-07-29T12:43:06;4.60;;;1.97;;
21507;SDS011;10915;54.352;9.074;2022-07-29T12:45:32;4.23;;;1.80;;
21507;SDS011;10915;54.352;9.074;2022-07-29T12:47:58;3.97;;;1.77;;
21507;SDS011;10915;54.352;9.074;2022-07-29T12:50:24;7.27;;;1.70;;
21507;SDS011;10915;54.352;9.074;2022-07-29T12:52:50;6.93;;;1.80;;
21507;SDS011;10915;54.352;9.074;2022-07-29T12:55:16;5.47;;;1.70;;
21507;SDS011;10915;54.352;9.074;2022-07-29T12:58:01;5.33;;;1.80;;
21507;SDS011;10915;54.352;9.074;2022-07-29T13:00:27;4.70;;;1.87;;
21507;SDS011;10915;54.352;9.074;2022-07-29T13:02:57;4.80;;;2.30;;
21507;SDS011;10915;54.352;9.074;2022-07-29T13:05:24;6.53;;;1.83;;
21507;SDS011;10915;54.352;9.074;2022-07-29T13:08:10;3.97;;;1.87;;
21507;SDS011;10915;54.352;9.074;2022-07-29T13:10:40;2.87;;;1.60;;
21507;SDS011;10915;54.352;9.074;2022-07-29T13:13:07;5.63;;;1.87;;
21507;SDS011;10915;54.352;9.074;2022-07-29T13:15:39;7.13;;;1.93;;
21507;SDS011;10915;54.352;9.074;2022-07-29T13:21:13;10.70;;;1.97;;
21507;SDS011;10915;54.352;9.074;2022-07-29T13:23:40;5.83;;;2.03;;
21507;SDS011;10915;54.352;9.074;2022-07-29T13:26:10;8.10;;;1.90;;
21507;SDS011;10915;54.352;9.074;2022-07-29T13:28:41;7.20;;;2.33;;
21507;SDS011;10915;54.352;9.074;2022-07-29T13:31:06;5.57;;;2.00;;
21507;SDS011;10915;54.352;9.074;2022-07-29T13:33:32;9.40;;;2.20;;
21507;SDS011;10915;54.352;9.074;2022-07-29T13:35:58;7.87;;;1.90;;
21507;SDS011;10915;54.352;9.074;2022-07-29T13:38:23;6.87;;;2.50;;
21507;SDS011;10915;54.352;9.074;2022-07-29T13:40:49;9.53;;;2.80;;
21507;SDS011;10915;54.352;9.074;2022-07-29T13:43:14;12.20;;;2.43;;
21507;SDS011;10915;54.352;9.074;2022-07-29T13:45:40;5.23;;;2.17;;
21507;SDS011;10915;54.352;9.074;2022-07-29T13:48:06;7.73;;;2.20;;
21507;SDS011;10915;54.352;9.074;2022-07-29T13:50:32;4.73;;;2.07;;
21507;SDS011;10915;54.352;9.074;2022-07-29T13:52:57;9.33;;;2.33;;
21507;SDS011;10915;54.352;9.074;2022-07-29T13:55:23;4.67;;;1.73;;
21507;SDS011;10915;54.352;9.074;2022-07-29T13:57:49;4.87;;;1.80;;
21507;SDS011;10915;54.352;9.074;2022-07-29T14:00:15;5.93;;;1.90;;
21507;SDS011;10915;54.352;9.074;2022-07-29T14:02:41;8.67;;;1.80;;
21507;SDS011;10915;54.352;9.074;2022-07-29T14:05:07;3.40;;;1.80;;
21507;SDS011;10915;54.352;9.074;2022-07-29T14:07:34;7.33;;;1.80;;
21507;SDS011;10915;54.352;9.074;2022-07-29T14:10:01;13.57;;;2.50;;
21507;SDS011;10915;54.352;9.074;2022-07-29T14:12:28;6.43;;;2.37;;
21507;SDS011;10915;54.352;9.074;2022-07-29T14:14:54;5.17;;;1.63;;
21507;SDS011;10915;54.352;9.074;2022-07-29T14:17:20;5.87;;;2.00;;
21507;SDS011;10915;54.352;9.074;2022-07-29T14:19:45;5.27;;;1.87;;
21507;SDS011;10915;54.352;9.074;2022-07-29T14:22:11;6.40;;;1.80;;
21507;SDS011;10915;54.352;9.074;2022-07-29T14:24:37;5.83;;;1.80;;
21507;SDS011;10915;54.352;9.074;2022-07-29T14:27:06;11.30;;;2.40;;
21507;SDS011;10915;54.352;9.074;2022-07-29T14:32:08;10.00;;;2.23;;
21507;SDS011;10915;54.352;9.074;2022-07-29T14:34:39;8.63;;;1.87;;
21507;SDS011;10915;54.352;9.074;2022-07-29T14:37:05;5.53;;;2.60;;
21507;SDS011;10915;54.352;9.074;2022-07-29T14:39:31;6.57;;;1.77;;
21507;SDS011;10915;54.352;9.074;2022-07-29T14:41:57;6.70;;;2.10;;
21507;SDS011;10915;54.352;9.074;2022-07-29T14:44:23;6.03;;;1.93;;
21507;SDS011;10915;54.352;9.074;2022-07-29T14:46:49;5.20;;;2.03;;
21507;SDS011;10915;54.352;9.074;2022-07-29T14:49:14;3.93;;;1.80;;
21507;SDS011;10915;54.352;9.074;2022-07-29T14:51:40;6.23;;;2.07;;
21507;SDS011;10915;54.352;9.074;2022-07-29T14:54:06;4.40;;;1.80;;
21507;SDS011;10915;54.352;9.074;2022-07-29T14:56:32;7.80;;;2.03;;
21507;SDS011;10915;54.352;9.074;2022-07-29T14:58:58;5.93;;;1.93;;
21507;SDS011;10915;54.352;9.074;2022-07-29T15:01:23;3.37;;;2.20;;
21507;SDS011;10915;54.352;9.074;2022-07-29T15:03:50;6.40;;;2.10;;
21507;SDS011;10915;54.352;9.074;2022-07-29T15:06:16;6.17;;;2.07;;
21507;SDS011;10915;54.352;9.074;2022-07-29T15:08:41;7.93;;;2.13;;
21507;SDS011;10915;54.352;9.074;2022-07-29T15:11:07;8.27;;;2.40;;
21507;SDS011;10915;54.352;9.074;2022-07-29T15:13:33;6.03;;;2.07;;
21507;SDS011;10915;54.352;9.074;2022-07-29T15:15:59;7.03;;;1.93;;
21507;SDS011;10915;54.352;9.074;2022-07-29T15:18:25;9.80;;;2.27;;
21507;SDS011;10915;54.352;9.074;2022-07-29T15:20:50;9.47;;;2.47;;
21507;SDS011;10915;54.352;9.074;2022-07-29T15:23:16;5.60;;;2.27;;
21507;SDS011;10915;54.352;9.074;2022-07-29T15:25:42;4.93;;;2.10;;
21507;SDS011;10915;54.352;9.074;2022-07-29T15:28:07;8.30;;;2.50;;
21507;SDS011;10915;54.352;9.074;2022-07-29T15:30:33;5.30;;;1.90;;
21507;SDS011;10915;54.352;9.074;2022-07-29T15:33:04;6.70;;;2.00;;
21507;SDS011;10915;54.352;9.074;2022-07-29T15:35:30;9.40;;;2.27;;
21507;SDS011;10915;54.352;9.074;2022-07-29T15:37:56;7.13;;;2.10;;
21507;SDS011;10915;54.352;9.074;2022-07-29T15:40:22;6.23;;;2.20;;
21507;SDS011;10915;54.352;9.074;2022-07-29T15:42:47;5.63;;;1.90;;
21507;SDS011;10915;54.352;9.074;2022-07-29T15:45:13;5.70;;;1.90;;
21507;SDS011;10915;54.352;9.074;2022-07-29T15:47:39;3.97;;;1.90;;
21507;SDS011;10915;54.352;9.074;2022-07-29T15:50:04;6.30;;;2.00;;
21507;SDS011;10915;54.352;9.074;2022-07-29T15:52:31;6.60;;;2.03;;
21507;SDS011;10915;54.352;9.074;2022-07-29T15:54:57;7.93;;;2.20;;
21507;SDS011;10915;54.352;9.074;2022-07-29T15:57:23;6.40;;;2.03;;
21507;SDS011;10915;54.352;9.074;2022-07-29T15:59:49;8.77;;;1.80;;
21507;SDS011;10915;54.352;9.074;2022-07-29T16:02:15;9.00;;;2.03;;
21507;SDS011;10915;54.352;9.074;2022-07-29T16:04:41;6.17;;;2.03;;
21507;SDS011;10915;54.352;9.074;2022-07-29T16:07:07;8.23;;;2.07;;
21507;SDS011;10915;54.352;9.074;2022-07-29T16:09:32;4.57;;;2.00;;
21507;SDS011;10915;54.352;9.074;2022-07-29T16:11:58;3.97;;;2.13;;
21507;SDS011;10915;54.352;9.074;2022-07-29T16:14:24;4.13;;;1.67;;
21507;SDS011;10915;54.352;9.074;2022-07-29T16:16:50;10.23;;;2.20;;